Time;durP1;ratioP1;P1;durP2;ratioP2;P2;SDS_P1;SDS_P2;PMS_P1;PMS_P2;Temp;Humidity;BMP_temperature;BMP_pressure;BME280_temperature;BME280_humidity;BME280_pressure;Samples;Min_cycle;Max_cycle;Signal;HPM_P1;HPM_P2
2022/04/07 00:01:47;;;;;;;6.90;4.50;;;;;;;7.11;71.09;97807.09;105144;1271;75571;-26
2022/04/07 00:04:18;;;;;;;5.10;4.00;;;;;;;6.97;72.32;97803.33;104844;1272;76063;-26
2022/04/07 00:06:48;;;;;;;7.00;4.60;;;;;;;7.41;71.26;97799.67;104799;1272;74149;-26
2022/04/07 00:09:18;;;;;;;6.20;4.10;;;;;;;7.60;70.19;97796.27;104615;1274;61919;-26
2022/04/07 00:11:47;;;;;;;8.00;4.90;;;;;;;7.51;70.49;97794.80;104994;1274;61090;-26
2022/04/07 00:14:17;;;;;;;6.00;4.40;;;;;;;7.36;70.66;97793.71;105084;1274;75276;-26
2022/04/07 00:17:04;;;;;;;8.30;4.40;;;;;;;7.13;71.64;97789.38;104948;1274;76178;-26
2022/04/07 00:19:33;;;;;;;7.10;4.10;;;;;;;7.00;71.77;97786.96;105077;1274;74697;-26
2022/04/07 00:22:04;;;;;;;5.80;3.00;;;;;;;7.02;72.04;97784.08;105057;1274;63768;-26
2022/04/07 00:24:33;;;;;;;8.50;4.20;;;;;;;7.48;70.87;97782.29;105119;1274;61208;-27
2022/04/07 00:27:02;;;;;;;6.70;3.80;;;;;;;7.63;70.02;97779.25;104980;1274;75492;-27
2022/04/07 00:29:33;;;;;;;5.20;4.00;;;;;;;7.59;69.81;97777.91;104306;1277;588857;-26
2022/04/07 00:32:05;;;;;;;5.50;4.10;;;;;;;7.42;70.12;97775.80;105030;1272;75120;-28
2022/04/07 00:34:35;;;;;;;4.80;3.20;;;;;;;7.17;70.71;97773.30;105013;1274;62045;-27
2022/04/07 00:37:04;;;;;;;9.50;4.20;;;;;;;6.91;71.98;97771.73;104937;1271;61045;-27
2022/04/07 00:39:34;;;;;;;3.50;2.40;;;;;;;7.05;71.97;97766.56;105031;1272;75545;-27
2022/04/07 00:42:05;;;;;;;5.40;4.10;;;;;;;7.43;70.42;97769.09;104915;1272;75056;-27
2022/04/07 00:44:34;;;;;;;6.60;3.40;;;;;;;7.52;69.98;97768.11;104967;1271;74295;-27
2022/04/07 00:47:04;;;;;;;4.90;3.50;;;;;;;7.40;70.31;97765.45;104910;1274;61816;-26
2022/04/07 00:49:33;;;;;;;7.50;3.90;;;;;;;7.29;70.36;97758.43;104837;1274;62271;-27
2022/04/07 00:52:02;;;;;;;4.50;3.40;;;;;;;7.10;70.87;97754.09;104800;1272;74326;-27
2022/04/07 00:54:34;;;;;;;6.20;3.90;;;;;;;6.91;71.56;97751.89;104817;1274;75988;-27
2022/04/07 00:57:04;;;;;;;4.60;3.00;;;;;;;6.81;72.24;97749.64;104913;1271;74495;-27
2022/04/07 00:59:34;;;;;;;4.30;3.20;;;;;;;7.33;70.97;97747.52;104763;1273;62131;-27
2022/04/07 01:02:03;;;;;;;4.80;3.40;;;;;;;7.82;69.01;97748.02;104824;1272;62010;-26
2022/04/07 01:04:34;;;;;;;4.70;3.40;;;;;;;7.83;68.58;97747.92;104788;1271;74612;-26
2022/04/07 01:07:06;;;;;;;5.60;3.80;;;;;;;7.73;68.73;97752.10;104651;1274;76776;-26
2022/04/07 01:09:54;;;;;;;5.30;3.60;;;;;;;7.47;69.21;97750.64;104738;1274;75458;-25
2022/04/07 01:12:23;;;;;;;4.50;3.50;;;;;;;7.17;70.11;97748.23;104791;1274;61127;-26
2022/04/07 01:14:59;;;;;;;5.90;3.70;;;;;;;6.93;70.80;97744.29;105097;1271;62027;-26
2022/04/07 01:17:30;;;;;;;5.00;3.50;;;;;;;6.73;71.46;97741.69;105034;1274;75536;-26
2022/04/07 01:19:59;;;;;;;5.80;3.80;;;;;;;6.70;72.08;97746.41;104796;1272;75817;-26
2022/04/07 01:22:29;;;;;;;3.30;2.40;;;;;;;7.14;71.15;97748.83;104774;1271;73764;-26
2022/04/07 01:25:18;;;;;;;4.40;3.30;;;;;;;7.33;70.10;97741.34;104892;1271;63250;-26
2022/04/07 01:27:49;;;;;;;5.90;4.10;;;;;;;7.25;70.02;97743.58;105090;1272;61208;-26
2022/04/07 01:30:19;;;;;;;6.60;4.10;;;;;;;7.05;70.52;97740.33;105022;1274;75299;-26
2022/04/07 01:32:52;;;;;;;5.80;3.80;;;;;;;6.84;71.08;97734.23;105083;1274;74012;-26
2022/04/07 01:35:22;;;;;;;5.50;3.80;;;;;;;6.69;71.61;97737.75;104829;1271;74415;-26
2022/04/07 01:37:53;;;;;;;5.80;2.50;;;;;;;6.75;71.92;97736.21;104878;1272;63771;-26
2022/04/07 01:40:24;;;;;;;7.90;4.40;;;;;;;7.21;70.28;97737.39;104819;1274;61799;-26
2022/04/07 01:42:55;;;;;;;3.00;2.30;;;;;;;7.47;69.16;97737.01;104608;1271;75684;-26
2022/04/07 01:45:24;;;;;;;3.20;2.30;;;;;;;7.42;69.06;97735.07;104965;1271;74735;-26
2022/04/07 01:47:56;;;;;;;4.40;2.60;;;;;;;7.23;69.33;97731.73;104917;1271;74457;-26
2022/04/07 01:50:38;;;;;;;7.90;3.70;;;;;;;7.01;70.01;97731.85;105061;1271;61147;-26
2022/04/07 01:53:08;;;;;;;6.30;4.80;;;;;;;6.80;70.61;97726.29;105074;1271;61047;-27
2022/04/07 01:55:39;;;;;;;4.90;3.00;;;;;;;6.64;71.08;97726.97;104872;1271;75478;-26
2022/04/07 01:58:08;;;;;;;5.20;3.30;;;;;;;6.88;71.02;97725.09;104791;1271;76014;-26
2022/04/07 02:00:40;;;;;;;4.40;3.30;;;;;;;7.17;69.73;97726.67;104818;1274;74419;-26
2022/04/07 02:03:10;;;;;;;8.50;5.20;;;;;;;7.24;69.38;97723.48;105101;1272;61233;-26
2022/04/07 02:05:39;;;;;;;6.60;4.40;;;;;;;7.09;69.54;97715.61;105152;1271;62336;-26
2022/04/07 02:08:08;;;;;;;7.30;5.20;;;;;;;6.87;70.06;97713.07;105138;1271;75622;-26
2022/04/07 02:10:53;;;;;;;9.40;5.30;;;;;;;6.59;71.13;97709.92;104868;1274;76005;-26
2022/04/07 02:13:23;;;;;;;8.10;4.30;;;;;;;6.39;71.85;97708.90;104943;1271;74390;-26
2022/04/07 02:16:12;;;;;;;3.80;3.20;;;;;;;6.74;71.31;97707.62;105049;1271;61100;-26
2022/04/07 02:18:41;;;;;;;7.40;3.80;;;;;;;7.20;69.57;97710.36;105142;1271;62005;-26
2022/04/07 02:21:10;;;;;;;6.60;4.40;;;;;;;7.23;68.99;97704.55;104688;1274;74507;-26
2022/04/07 02:23:42;;;;;;;7.00;5.20;;;;;;;7.09;69.31;97697.66;104998;1272;75087;-26
2022/04/07 02:26:13;;;;;;;6.00;3.90;;;;;;;6.86;69.90;97694.05;105088;1271;74356;-26
2022/04/07 02:28:43;;;;;;;7.00;3.60;;;;;;;6.64;70.59;97693.98;105094;1274;61188;-26
2022/04/07 02:31:12;;;;;;;6.10;4.40;;;;;;;6.46;71.13;97693.98;105102;1271;61144;-26
2022/04/07 02:33:41;;;;;;;4.90;3.10;;;;;;;6.34;71.67;97691.08;105121;1273;75553;-26
2022/04/07 02:36:10;;;;;;;4.90;2.90;;;;;;;6.78;70.94;97689.15;105121;1271;75784;-26
2022/04/07 02:38:40;;;;;;;4.70;3.60;;;;;;;7.20;69.23;97689.51;105075;1271;74467;-26
2022/04/07 02:41:09;;;;;;;5.30;3.90;;;;;;;7.15;69.02;97688.52;105003;1274;61240;-26
2022/04/07 02:43:40;;;;;;;4.90;3.30;;;;;;;6.95;69.41;97683.40;104818;1271;61247;-26
2022/04/07 02:46:10;;;;;;;6.50;4.40;;;;;;;6.72;70.23;97682.42;104883;1271;75581;-26
2022/04/07 02:48:40;;;;;;;5.80;3.10;;;;;;;6.53;70.61;97677.39;104936;1271;76378;-25
2022/04/07 02:51:09;;;;;;;5.10;3.50;;;;;;;6.33;71.31;97677.39;105122;1271;74202;-25
2022/04/07 02:53:38;;;;;;;3.10;2.50;;;;;;;6.22;71.67;97678.44;104973;1274;62618;-25
2022/04/07 02:56:07;;;;;;;5.10;3.70;;;;;;;6.70;70.80;97681.11;104967;1274;61788;-26
2022/04/07 02:58:38;;;;;;;5.30;3.40;;;;;;;7.10;69.08;97677.43;104868;1271;75614;-26
2022/04/07 03:01:14;;;;;;;3.40;2.50;;;;;;;7.07;68.67;97674.41;104785;1272;75983;-26
2022/04/07 03:03:48;;;;;;;7.70;3.90;;;;;;;6.87;69.13;97675.41;104772;1271;74886;-25
2022/04/07 03:06:44;;;;;;;2.40;1.90;;;;;;;6.65;69.54;97672.54;105028;1274;62907;-26
2022/04/07 03:09:13;;;;;;;6.60;3.50;;;;;;;6.49;70.17;97669.45;105019;1271;61105;-26
2022/04/07 03:11:48;;;;;;;4.30;3.40;;;;;;;6.31;70.62;97671.11;104865;1271;75735;-26
2022/04/07 03:14:17;;;;;;;4.80;3.10;;;;;;;6.30;71.26;97669.52;104703;1274;76085;-26
2022/04/07 03:17:06;;;;;;;4.60;3.10;;;;;;;6.77;69.91;97670.94;104846;1273;74500;-26
2022/04/07 03:19:35;;;;;;;5.10;3.00;;;;;;;6.91;69.11;97673.95;104944;1273;61983;-26
2022/04/07 03:22:06;;;;;;;6.30;3.50;;;;;;;6.76;69.35;97666.45;104653;1273;61220;-25
2022/04/07 03:24:36;;;;;;;4.70;3.00;;;;;;;6.57;69.67;97664.25;104615;1273;75630;-26
2022/04/07 03:27:07;;;;;;;6.80;4.00;;;;;;;6.34;70.32;97652.45;104656;1273;73816;-26
2022/04/07 03:29:36;;;;;;;5.70;2.90;;;;;;;6.09;71.16;97650.09;104695;1273;74456;-26
2022/04/07 03:32:06;;;;;;;4.20;3.00;;;;;;;6.03;71.77;97649.91;104634;1273;63028;-26
2022/04/07 03:34:36;;;;;;;4.90;3.10;;;;;;;6.44;70.70;97648.29;104574;1273;61083;-26
2022/04/07 03:37:06;;;;;;;5.10;3.50;;;;;;;6.58;69.94;97645.91;104604;1275;74518;-25
2022/04/07 03:39:35;;;;;;;4.20;3.00;;;;;;;6.43;69.91;97645.78;104643;1273;74985;-26
2022/04/07 03:42:04;;;;;;;10.00;4.10;;;;;;;6.21;70.41;97646.15;104828;1273;74726;-26
2022/04/07 03:44:33;;;;;;;5.60;4.00;;;;;;;5.97;71.09;97644.89;104680;1273;62099;-25
2022/04/07 03:47:03;;;;;;;5.60;3.30;;;;;;;5.76;71.72;97645.60;104983;1273;61084;-25
2022/04/07 03:49:45;;;;;;;5.50;3.10;;;;;;;5.58;72.62;97637.95;104865;1273;75425;-26
2022/04/07 03:52:15;;;;;;;5.70;4.10;;;;;;;5.92;72.01;97637.02;104990;1273;75803;-26
2022/04/07 03:54:44;;;;;;;4.90;3.50;;;;;;;6.19;70.66;97635.64;104774;1273;74378;-26
2022/04/07 03:57:13;;;;;;;3.70;2.70;;;;;;;6.16;70.57;97638.11;104638;1272;61389;-25
2022/04/07 03:59:42;;;;;;;5.70;3.40;;;;;;;5.96;71.18;97638.08;104913;1273;61060;-26
2022/04/07 04:02:12;;;;;;;6.10;3.70;;;;;;;5.77;71.66;97634.42;104932;1273;74519;-26
2022/04/07 04:04:47;;;;;;;6.20;3.30;;;;;;;5.57;72.20;97634.39;105038;1273;76059;-26
2022/04/07 04:07:16;;;;;;;6.20;4.20;;;;;;;5.57;72.74;97635.80;104988;1273;73434;-25
2022/04/07 04:10:05;;;;;;;4.10;2.80;;;;;;;6.09;71.30;97634.23;104980;1273;61181;-27
2022/04/07 04:12:43;;;;;;;4.20;3.00;;;;;;;6.23;70.43;97629.71;104792;1273;62148;-27
2022/04/07 04:15:13;;;;;;;3.70;2.80;;;;;;;6.11;70.69;97626.66;104735;1274;75651;-26
2022/04/07 04:17:56;;;;;;;5.60;3.20;;;;;;;5.92;71.16;97621.50;104940;1272;75922;-28
2022/04/07 04:20:25;;;;;;;7.00;4.40;;;;;;;5.74;71.61;97617.52;104727;1274;74298;-28
2022/04/07 04:23:00;;;;;;;4.90;3.70;;;;;;;5.70;72.28;97618.38;104711;1274;61878;-27
2022/04/07 04:25:30;;;;;;;5.90;3.40;;;;;;;6.13;71.19;97619.78;104807;1274;61073;-27
2022/04/07 04:27:59;;;;;;;6.40;3.40;;;;;;;6.31;70.38;97622.14;104981;1274;75601;-26
2022/04/07 04:30:30;;;;;;;4.70;3.40;;;;;;;6.28;70.16;97630.60;105137;1273;76020;-28
2022/04/07 04:32:59;;;;;;;5.80;3.40;;;;;;;6.10;70.41;97635.35;104998;1274;74817;-29
2022/04/07 04:35:31;;;;;;;4.80;3.00;;;;;;;5.98;70.80;97639.10;104878;1271;61948;-27
2022/04/07 04:38:00;;;;;;;5.30;3.00;;;;;;;5.92;71.20;97640.83;104755;1274;61074;-28
2022/04/07 04:40:29;;;;;;;4.80;3.50;;;;;;;6.19;70.48;97639.72;104746;1274;75536;-26
2022/04/07 04:43:00;;;;;;;4.00;2.80;;;;;;;6.57;69.23;97641.21;104871;1274;76010;-29
2022/04/07 04:45:29;;;;;;;3.00;2.50;;;;;;;6.61;68.94;97644.11;104688;1274;74732;-27
2022/04/07 04:48:00;;;;;;;3.90;2.70;;;;;;;6.54;69.14;97651.56;104985;1271;62145;-27
2022/04/07 04:50:29;;;;;;;5.10;3.60;;;;;;;6.36;69.68;97651.73;105153;1272;61372;-27
2022/04/07 04:52:58;;;;;;;10.40;4.10;;;;;;;6.28;70.01;97656.91;105062;1274;74524;-26
2022/04/07 04:55:28;;;;;;;4.30;2.60;;;;;;;6.29;70.14;97657.52;104831;1271;75994;-26
2022/04/07 04:57:56;;;;;;;3.90;3.20;;;;;;;6.71;68.86;97659.45;104928;1274;74457;-27
2022/04/07 05:00:25;;;;;;;7.80;3.80;;;;;;;6.96;67.97;97661.05;104662;1274;61269;-27
2022/04/07 05:02:54;;;;;;;9.40;4.30;;;;;;;6.92;67.87;97664.17;104836;1271;62221;-27
2022/04/07 05:05:24;;;;;;;6.30;3.70;;;;;;;6.79;68.26;97656.38;104796;1274;75568;-25
2022/04/07 05:07:53;;;;;;;6.50;3.10;;;;;;;6.72;68.57;97652.25;104887;1271;75985;-27
2022/04/07 05:10:22;;;;;;;7.40;3.30;;;;;;;6.63;69.06;97657.37;105103;1274;74363;-26
2022/04/07 05:13:11;;;;;;;3.90;2.80;;;;;;;6.69;69.34;97656.01;105018;1273;63160;-26
2022/04/07 05:15:42;;;;;;;4.40;3.00;;;;;;;7.04;68.28;97653.30;104655;1273;62152;-27
2022/04/07 05:18:11;;;;;;;5.50;3.30;;;;;;;7.34;67.07;97654.23;104610;1273;76192;-27
2022/04/07 05:20:41;;;;;;;4.80;3.10;;;;;;;7.34;66.80;97655.83;104658;1273;75817;-26
2022/04/07 05:23:11;;;;;;;5.10;3.20;;;;;;;7.32;66.98;97649.07;105030;1273;74580;-26
2022/04/07 05:25:40;;;;;;;5.20;3.10;;;;;;;7.29;67.19;97648.15;104989;1273;61158;-26
2022/04/07 05:28:09;;;;;;;3.60;3.10;;;;;;;7.17;67.27;97640.70;104870;1273;61161;-27
2022/04/07 05:30:39;;;;;;;4.10;3.20;;;;;;;7.12;67.38;97636.11;104740;1271;75384;-26
2022/04/07 05:33:08;;;;;;;3.90;2.70;;;;;;;7.24;67.37;97636.66;105009;1273;74870;-25
2022/04/07 05:35:38;;;;;;;5.90;3.20;;;;;;;7.69;66.15;97639.66;104898;1273;74467;-26
2022/04/07 05:38:08;;;;;;;5.90;3.10;;;;;;;7.88;65.37;97643.15;104921;1273;61939;-26
2022/04/07 05:40:37;;;;;;;4.80;2.90;;;;;;;8.06;65.06;97646.64;104618;1273;62325;-26
2022/04/07 05:43:07;;;;;;;3.80;3.30;;;;;;;8.14;64.61;97649.91;104639;1273;75480;-26
2022/04/07 05:45:38;;;;;;;4.00;3.10;;;;;;;8.17;64.62;97654.11;104701;1273;75786;-26
2022/04/07 05:48:08;;;;;;;4.60;2.20;;;;;;;8.21;64.75;97646.16;105068;1273;72781;-26
2022/04/07 05:50:39;;;;;;;3.80;2.60;;;;;;;8.21;64.75;97641.40;104776;1273;61839;-26
2022/04/07 05:53:10;;;;;;;4.90;3.60;;;;;;;8.16;64.83;97638.64;104766;1273;61854;-25
2022/04/07 05:55:39;;;;;;;5.50;3.00;;;;;;;8.21;64.95;97637.34;105014;1273;75582;-26
2022/04/07 05:58:10;;;;;;;4.10;2.70;;;;;;;8.26;65.08;97636.27;105110;1273;74938;-25
2022/04/07 06:00:40;;;;;;;4.60;3.00;;;;;;;8.27;65.08;97631.36;104924;1273;74720;-26
2022/04/07 06:03:11;;;;;;;3.40;2.70;;;;;;;8.33;65.21;97627.75;105007;1273;61819;-26
2022/04/07 06:05:40;;;;;;;3.20;2.40;;;;;;;8.34;65.02;97624.30;105032;1273;61135;-25
2022/04/07 06:08:29;;;;;;;5.10;3.10;;;;;;;8.47;64.78;97626.73;104975;1273;76749;-26
2022/04/07 06:11:01;;;;;;;4.00;2.20;;;;;;;8.88;63.64;97617.82;104774;1273;74859;-26
2022/04/07 06:13:50;;;;;;;6.00;3.20;;;;;;;9.33;62.51;97615.08;104880;1273;74290;-26
2022/04/07 06:16:19;;;;;;;3.50;2.30;;;;;;;9.53;61.98;97610.98;105118;1271;61171;-26
2022/04/07 06:18:49;;;;;;;4.40;2.70;;;;;;;9.61;61.95;97606.58;105039;1271;61070;-26
2022/04/07 06:21:18;;;;;;;4.30;2.70;;;;;;;9.74;61.53;97603.93;104787;1271;74556;-26
2022/04/07 06:24:07;;;;;;;4.10;2.70;;;;;;;9.90;60.89;97597.80;104781;1272;76207;-26
2022/04/07 06:26:38;;;;;;;6.50;3.40;;;;;;;10.18;61.06;97591.91;104721;1271;74450;-26
2022/04/07 06:29:07;;;;;;;3.00;2.10;;;;;;;10.50;60.46;97591.88;104986;1274;61221;-26
2022/04/07 06:31:37;;;;;;;2.80;1.70;;;;;;;10.73;58.82;97591.33;104790;1271;61796;-25
2022/04/07 06:34:20;;;;;;;2.30;2.00;;;;;;;10.94;58.01;97584.49;105040;1274;75605;-27
2022/04/07 06:36:50;;;;;;;9.40;3.10;;;;;;;11.12;57.25;97587.48;105064;1271;75157;-26
2022/04/07 06:39:19;;;;;;;3.10;2.10;;;;;;;11.24;56.10;97592.39;104670;1274;74357;-26
2022/04/07 06:41:48;;;;;;;2.60;2.00;;;;;;;11.45;56.01;97587.06;105050;1274;61178;-26
2022/04/07 06:44:19;;;;;;;3.20;1.60;;;;;;;11.65;55.06;97582.45;105059;1274;61393;-26
2022/04/07 06:46:48;;;;;;;4.80;1.70;;;;;;;11.81;54.54;97581.27;104831;1274;74607;-26
2022/04/07 06:49:17;;;;;;;2.40;1.70;;;;;;;11.98;53.83;97581.68;104736;1274;75007;-26
2022/04/07 06:51:49;;;;;;;4.90;1.80;;;;;;;12.15;53.05;97575.27;104731;1274;74697;-26
2022/04/07 06:54:18;;;;;;;2.80;2.00;;;;;;;12.31;53.51;97570.69;104801;1274;61262;-25
2022/04/07 06:56:47;;;;;;;1.70;1.40;;;;;;;12.59;52.48;97566.40;104819;1274;61015;-26
2022/04/07 06:59:16;;;;;;;2.90;1.20;;;;;;;12.78;52.50;97564.08;104941;1274;75576;-25
2022/04/07 07:01:45;;;;;;;4.00;2.20;;;;;;;12.85;51.56;97556.66;105090;1272;76030;-25
2022/04/07 07:04:15;;;;;;;1.70;1.20;;;;;;;12.97;51.90;97558.59;104857;1274;74672;-26
2022/04/07 07:06:44;;;;;;;10.00;2.00;;;;;;;13.10;51.13;97558.83;104928;1273;61018;-26
2022/04/07 07:09:13;;;;;;;2.10;1.50;;;;;;;13.23;50.90;97555.59;104825;1272;61055;-26
2022/04/07 07:11:57;;;;;;;3.10;1.80;;;;;;;13.42;50.83;97559.42;104724;1274;75535;-26
2022/04/07 07:14:26;;;;;;;2.30;1.40;;;;;;;13.67;51.10;97558.20;104819;1274;74801;-25
2022/04/07 07:17:15;;;;;;;2.90;1.60;;;;;;;13.82;50.54;97547.96;104777;1273;74684;-25
2022/04/07 07:19:44;;;;;;;2.30;1.10;;;;;;;13.97;50.60;97546.05;104796;1273;61124;-25
2022/04/07 07:22:33;;;;;;;4.00;1.60;;;;;;;14.22;50.68;97539.30;104747;1273;61139;-25
2022/04/07 07:25:04;;;;;;;2.90;1.90;;;;;;;14.25;49.84;97541.86;104609;1273;73692;-25
2022/04/07 07:27:41;;;;;;;1.60;1.40;;;;;;;14.44;50.32;97538.07;104643;1273;76956;-24
2022/04/07 07:30:11;;;;;;;2.60;1.60;;;;;;;14.57;49.54;97541.09;104775;1273;74446;-23
2022/04/07 07:32:40;;;;;;;8.90;2.00;;;;;;;14.70;49.17;97535.30;104871;1273;61179;-25
2022/04/07 07:35:10;;;;;;;1.70;1.20;;;;;;;14.47;49.05;97535.48;104650;1273;61938;-23
2022/04/07 07:38:07;;;;;;;1.90;1.60;;;;;;;14.45;48.89;97524.75;104856;1270;75611;-23
2022/04/07 07:40:38;;;;;;;2.20;1.20;;;;;;;14.53;48.69;97533.84;105193;1272;74862;-26
2022/04/07 07:43:08;;;;;;;2.00;1.40;;;;;;;14.73;48.62;97539.55;105086;1273;73017;-23
2022/04/07 07:45:38;;;;;;;2.30;1.30;;;;;;;14.80;47.92;97537.94;105101;1273;62075;-24
2022/04/07 07:48:27;;;;;;;3.60;1.70;;;;;;;14.97;47.55;97526.77;105034;1273;61922;-23
2022/04/07 07:50:57;;;;;;;;;;;;;;;14.96;47.14;97538.34;104634;1273;74497;-27
2022/04/07 07:53:28;;;;;;;2.00;1.40;;;;;;;15.06;47.18;97540.50;104876;1273;75950;-23
2022/04/07 07:55:59;;;;;;;1.40;1.20;;;;;;;15.18;46.71;97534.70;104870;1273;74749;-24
2022/04/07 07:58:28;;;;;;;2.00;1.30;;;;;;;15.37;46.16;97533.33;104715;1273;62637;-23
2022/04/07 08:00:58;;;;;;;1.30;1.00;;;;;;;15.53;46.08;97528.42;104684;1273;61315;-23
2022/04/07 08:03:29;;;;;;;1.50;1.20;;;;;;;15.61;45.97;97526.17;104711;1273;75609;-23
2022/04/07 08:05:59;;;;;;;2.40;1.90;;;;;;;15.72;46.35;97527.20;104781;1273;73836;-24
2022/04/07 08:08:31;;;;;;;1.20;0.80;;;;;;;15.92;45.19;97510.66;104619;1273;75388;-23
2022/04/07 08:11:18;;;;;;;3.70;1.80;;;;;;;16.14;44.93;97515.81;104593;1273;61187;-24
2022/04/07 08:13:49;;;;;;;2.50;1.50;;;;;;;16.20;44.30;97510.73;104743;1273;62099;-23
2022/04/07 08:16:18;;;;;;;5.20;1.50;;;;;;;16.35;44.57;97511.88;104779;1274;75657;-25
2022/04/07 08:18:50;;;;;;;4.20;1.40;;;;;;;16.46;44.78;97508.98;104830;1271;76054;-25
2022/04/07 08:21:19;;;;;;;2.00;1.20;;;;;;;16.93;44.43;97501.28;104812;1271;74417;-23
2022/04/07 08:23:48;;;;;;;3.70;2.30;;;;;;;17.17;42.17;97502.32;104779;1272;61120;-23
2022/04/07 08:26:19;;;;;;;2.40;1.50;;;;;;;17.11;41.90;97493.18;104783;1274;61281;-27
2022/04/07 08:28:48;;;;;;;1.40;1.00;;;;;;;17.27;40.97;97495.16;104666;1274;76020;-25
2022/04/07 08:31:21;;;;;;;1.20;0.80;;;;;;;17.21;40.53;97488.42;105156;1271;76054;-23
2022/04/07 08:33:50;;;;;;;2.20;1.40;;;;;;;17.27;40.11;97483.79;104847;1272;74412;-25
2022/04/07 08:36:19;;;;;;;6.30;1.30;;;;;;;17.21;39.54;97475.03;104807;1271;62487;-23
2022/04/07 08:38:49;;;;;;;1.60;1.10;;;;;;;17.39;40.13;97474.70;104804;1271;61038;-24
2022/04/07 08:41:19;;;;;;;1.00;0.90;;;;;;;17.66;39.52;97474.88;104780;1274;75383;-24
2022/04/07 08:43:49;;;;;;;1.30;1.00;;;;;;;17.76;39.62;97463.97;104808;1271;76096;-23
2022/04/07 08:46:19;;;;;;;1.00;0.90;;;;;;;17.83;39.64;97455.34;104788;1271;74262;-23
2022/04/07 08:48:49;;;;;;;1.60;1.20;;;;;;;17.81;38.78;97452.12;104733;1274;61008;-23
2022/04/07 08:51:19;;;;;;;2.10;1.30;;;;;;;17.82;38.91;97443.93;104746;1272;62034;-25
2022/04/07 08:53:48;;;;;;;3.50;1.10;;;;;;;18.01;39.50;97442.47;104745;1274;75488;-26
2022/04/07 08:56:18;;;;;;;2.10;1.40;;;;;;;18.42;39.24;97433.99;104695;1274;76061;-24
2022/04/07 08:58:50;;;;;;;1.30;1.20;;;;;;;18.62;38.87;97436.34;104746;1274;74369;-23
2022/04/07 09:01:20;;;;;;;2.60;1.10;;;;;;;18.81;38.31;97432.55;104699;1272;62179;-24
2022/04/07 09:03:49;;;;;;;1.80;1.40;;;;;;;18.64;37.38;97423.55;104753;1274;61101;-23
2022/04/07 09:06:20;;;;;;;1.60;1.00;;;;;;;18.55;37.46;97414.70;104829;1272;75492;-23
2022/04/07 09:08:49;;;;;;;2.40;1.30;;;;;;;18.65;37.89;97412.54;104635;1274;76066;-25
2022/04/07 09:11:21;;;;;;;2.80;1.20;;;;;;;18.73;36.52;97411.33;104782;1274;73509;-27
2022/04/07 09:13:54;;;;;;;1.70;1.00;;;;;;;18.89;36.34;97413.70;104985;1274;60959;-24
2022/04/07 09:16:27;;;;;;;2.00;1.40;;;;;;;18.75;36.20;97402.06;104729;1271;62528;-24
2022/04/07 09:18:56;;;;;;;1.20;1.00;;;;;;;18.56;36.81;97408.17;104749;1273;74619;-27
2022/04/07 09:21:45;;;;;;;1.40;1.00;;;;;;;18.68;36.24;97398.05;104730;1273;76354;-24
2022/04/07 09:24:15;;;;;;;1.50;1.10;;;;;;;18.75;36.87;97390.55;104754;1273;74431;-24
2022/04/07 09:26:45;;;;;;;2.60;1.20;;;;;;;19.02;36.04;97386.92;104810;1273;61915;-24
2022/04/07 09:29:15;;;;;;;1.30;1.10;;;;;;;19.01;35.69;97381.66;104757;1273;61112;-24
2022/04/07 09:31:53;;;;;;;3.90;1.20;;;;;;;18.83;35.73;97373.23;104885;1273;75621;-25
2022/04/07 09:34:31;;;;;;;3.50;1.30;;;;;;;18.71;35.87;97374.45;104621;1273;76002;-24
2022/04/07 09:37:09;;;;;;;1.20;1.00;;;;;;;18.46;36.24;97373.56;104681;1273;74607;-31
2022/04/07 09:39:44;;;;;;;4.80;1.10;;;;;;;18.44;35.85;97365.59;104809;1273;61033;-23
2022/04/07 09:42:18;;;;;;;1.50;1.00;;;;;;;18.42;35.66;97366.05;104915;1274;61760;-23
2022/04/07 09:44:57;;;;;;;1.40;0.90;;;;;;;18.55;35.42;97367.71;104676;1273;75526;-23
2022/04/07 09:47:35;;;;;;;1.90;1.30;;;;;;;18.81;35.91;97367.90;104760;1273;75994;-25
2022/04/07 09:50:07;;;;;;;3.60;0.80;;;;;;;19.12;34.53;97363.35;104673;1273;76296;-24
2022/04/07 09:52:40;;;;;;;1.50;1.10;;;;;;;19.12;33.91;97360.70;104633;1273;62218;-23
2022/04/07 09:55:09;;;;;;;;;;;;;;;19.02;33.92;97356.94;104939;1274;62648;-23
2022/04/07 09:57:44;;;;;;;1.10;0.90;;;;;;;19.16;34.40;97350.06;104754;1273;77504;-25
2022/04/07 10:00:14;;;;;;;2.60;1.60;;;;;;;19.12;33.91;97347.65;104786;1273;74044;-25
2022/04/07 10:02:45;;;;;;;2.70;1.10;;;;;;;19.16;34.41;97341.30;104825;1273;74445;-31
2022/04/07 10:05:15;;;;;;;2.30;1.10;;;;;;;19.11;33.88;97343.13;104982;1274;62372;-24
2022/04/07 10:07:48;;;;;;;2.30;1.50;;;;;;;19.26;34.64;97340.41;105002;1274;61887;-28
2022/04/07 10:10:18;;;;;;;1.60;1.20;;;;;;;19.53;34.08;97332.33;104671;1274;74483;-24
2022/04/07 10:13:07;;;;;;;1.90;1.20;;;;;;;19.90;32.93;97323.22;104699;1273;77157;-24
2022/04/07 10:15:36;;;;;;;2.20;1.30;;;;;;;19.87;34.41;97323.15;104709;1273;73253;-25
2022/04/07 10:18:12;;;;;;;1.20;0.80;;;;;;;20.06;32.79;97320.71;104749;1273;62067;-23
2022/04/07 10:20:44;;;;;;;8.10;1.10;;;;;;;20.18;31.06;97317.13;104840;1273;61125;-23
2022/04/07 10:23:42;;;;;;;1.60;0.70;;;;;;;20.10;31.22;97309.86;104833;1273;76749;-28
2022/04/07 10:26:11;;;;;;;1.40;0.90;;;;;;;20.00;31.22;97306.73;105073;1273;75057;-26
2022/04/07 10:28:40;;;;;;;1.90;0.90;;;;;;;19.85;30.51;97307.20;104816;1273;74099;-24
2022/04/07 10:31:15;;;;;;;2.00;0.80;;;;;;;19.86;31.13;97300.89;104885;1273;62299;-25
2022/04/07 10:33:47;;;;;;;2.50;1.10;;;;;;;19.89;31.92;97296.05;104714;1274;60981;-27
2022/04/07 10:36:23;;;;;;;1.80;0.80;;;;;;;19.84;31.55;97290.02;104761;1273;74530;-26
2022/04/07 10:38:52;;;;;;;1.30;1.00;;;;;;;19.73;31.69;97280.48;104646;1273;76132;-25
2022/04/07 10:41:37;;;;;;;1.30;0.80;;;;;;;19.81;31.90;97280.21;104894;1273;73559;-25
2022/04/07 10:44:15;;;;;;;1.60;0.90;;;;;;;19.89;32.21;97273.27;104883;1273;61112;-27
2022/04/07 10:46:44;;;;;;;1.40;1.00;;;;;;;19.89;31.69;97264.56;104726;1273;61062;-25
2022/04/07 10:49:23;;;;;;;1.90;1.10;;;;;;;19.86;31.98;97265.70;104796;1273;75389;-24
2022/04/07 10:51:53;;;;;;;3.20;1.20;;;;;;;19.72;32.24;97267.19;104739;1273;76356;-24
2022/04/07 10:54:23;;;;;;;1.60;1.00;;;;;;;19.83;32.20;97262.19;104703;1273;74411;-23
2022/04/07 10:56:56;;;;;;;1.00;0.70;;;;;;;20.15;30.77;97250.56;104890;1273;61114;-24
2022/04/07 10:59:30;;;;;;;2.00;1.00;;;;;;;20.26;31.85;97249.80;105045;1274;61148;-25
2022/04/07 11:02:04;;;;;;;1.80;1.30;;;;;;;19.98;31.83;97253.99;104582;1274;73710;-24
2022/04/07 11:04:36;;;;;;;1.40;1.00;;;;;;;20.27;32.89;97242.37;104625;1273;75214;-23
2022/04/07 11:07:06;;;;;;;4.40;1.00;;;;;;;20.57;31.26;97248.38;104616;1273;74745;-25
2022/04/07 11:09:55;;;;;;;2.00;1.00;;;;;;;21.29;29.59;97241.98;104614;1273;61068;-24
2022/04/07 11:12:44;;;;;;;0.80;0.60;;;;;;;21.70;27.96;97243.45;104760;1273;61279;-25
2022/04/07 11:15:25;;;;;;;2.50;1.50;;;;;;;21.77;27.56;97236.85;104772;1273;75335;-28
2022/04/07 11:18:29;;;;;;;1.60;1.30;;;;;;;21.38;28.00;97236.88;104636;1276;76067;-24
2022/04/07 11:21:08;;;;;;;2.10;1.00;;;;;;;20.82;27.77;97234.36;104407;1273;74278;-25
2022/04/07 11:23:52;;;;;;;1.50;0.70;;;;;;;21.01;28.89;97238.64;104727;1273;61833;-24
2022/04/07 11:26:26;;;;;;;0.80;0.70;;;;;;;20.85;27.50;97228.84;104652;1273;61145;-24
2022/04/07 11:29:16;;;;;;;2.10;1.30;;;;;;;21.06;28.29;97235.88;104941;1274;75655;-25
2022/04/07 11:31:50;;;;;;;1.20;1.10;;;;;;;21.37;27.38;97224.38;104942;1273;76113;-25
2022/04/07 11:35:00;;;;;;;1.70;1.20;;;;;;;21.07;27.97;97219.87;105057;1273;73450;-30
2022/04/07 11:37:30;;;;;;;2.30;1.10;;;;;;;20.61;28.63;97207.21;104760;1273;62348;-24
2022/04/07 11:40:03;;;;;;;1.40;0.90;;;;;;;20.53;29.08;97215.49;104740;1273;61024;-25
2022/04/07 11:42:32;;;;;;;;;;;;;;;20.54;28.97;97226.89;104731;1274;75266;-24
2022/04/07 11:45:02;;;;;;;2.20;1.00;;;;;;;20.34;28.42;97218.58;104729;1273;76057;-25
2022/04/07 11:47:36;;;;;;;1.70;1.10;;;;;;;20.37;28.46;97217.23;104764;1273;74349;-25
2022/04/07 11:50:09;;;;;;;1.50;1.00;;;;;;;20.21;29.48;97206.67;104738;1273;61202;-25
2022/04/07 11:52:40;;;;;;;2.10;1.10;;;;;;;20.20;29.05;97205.98;104616;1273;61487;-25
2022/04/07 11:55:13;;;;;;;2.50;1.20;;;;;;;20.11;29.74;97210.27;104636;1273;74192;-28
2022/04/07 11:57:43;;;;;;;;;;;;;;;19.88;29.55;97196.45;104719;1273;74544;-25